Time;durP1;ratioP1;P1;durP2;ratioP2;P2;SDS_P1;SDS_P2;PMS_P1;PMS_P2;Temp;Humidity;BMP_temperature;BMP_pressure;BME280_temperature;BME280_humidity;BME280_pressure;Samples;Min_cycle;Max_cycle;Signal;HPM_P1;HPM_P2
2022/12/28 00:01:14;;;;;;;7.60;5.18;;;;;;;6.78;69.00;95808.84;5043830;28;20491;-73
2022/12/28 00:03:40;;;;;;;8.35;5.43;;;;;;;6.63;68.74;95794.13;5041298;28;20050;-73
2022/12/28 00:06:06;;;;;;;7.03;5.47;;;;;;;6.70;68.93;95811.00;5044084;28;20101;-73
2022/12/28 00:08:31;;;;;;;8.07;5.90;;;;;;;6.66;68.68;95794.84;5042106;28;20057;-73
2022/12/28 00:11:05;;;;;;;7.80;5.60;;;;;;;6.79;68.93;95810.50;5039621;28;20025;-72
2022/12/28 00:13:31;;;;;;;9.48;5.63;;;;;;;6.72;68.68;95793.69;5024622;28;20033;-73
2022/12/28 00:15:57;;;;;;;11.50;6.43;;;;;;;6.79;68.52;95818.25;5023596;28;20069;-74
2022/12/28 00:18:23;;;;;;;8.50;5.72;;;;;;;6.86;68.69;95816.19;5010229;28;20037;-73
2022/12/28 00:20:57;;;;;;;9.05;6.00;;;;;;;6.86;68.61;95821.38;5042253;28;20457;-72
2022/12/28 00:23:24;;;;;;;9.38;5.60;;;;;;;6.84;68.65;95811.09;5042713;28;20035;-73
2022/12/28 00:25:49;;;;;;;8.90;6.00;;;;;;;6.84;68.83;95820.59;5039649;28;20037;-73
2022/12/28 00:28:14;;;;;;;8.50;5.90;;;;;;;6.82;69.00;95814.69;5043957;28;20495;-73
2022/12/28 00:30:40;;;;;;;8.35;6.15;;;;;;;6.81;69.18;95819.00;5042129;28;20423;-71
2022/12/28 00:33:05;;;;;;;8.23;6.13;;;;;;;6.79;69.34;95820.84;5042468;28;20057;-73
2022/12/28 00:35:31;;;;;;;7.88;5.60;;;;;;;6.80;69.55;95821.66;5039326;28;20103;-73
2022/12/28 00:37:56;;;;;;;8.77;5.50;;;;;;;6.87;69.63;95830.78;5042365;28;20033;-73
2022/12/28 00:40:21;;;;;;;7.97;5.20;;;;;;;6.83;69.41;95822.38;5042306;28;20265;-73
2022/12/28 00:42:47;;;;;;;9.90;5.88;;;;;;;6.78;69.86;95834.69;5042479;28;20056;-73
2022/12/28 00:45:12;;;;;;;8.75;6.43;;;;;;;6.74;70.05;95834.91;5040912;28;20029;-73
2022/12/28 00:47:38;;;;;;;10.00;7.47;;;;;;;6.71;70.46;95836.75;5009658;28;20044;-73
2022/12/28 00:50:04;;;;;;;7.85;6.32;;;;;;;6.72;70.16;95841.00;5042582;28;20048;-72
2022/12/28 00:52:29;;;;;;;10.27;6.25;;;;;;;6.80;69.72;95847.50;5043311;28;20113;-73
2022/12/28 00:54:54;;;;;;;23.17;17.17;;;;;;;6.86;69.76;95852.38;5040292;28;20029;-73
2022/12/28 00:57:20;;;;;;;15.15;9.70;;;;;;;6.87;69.67;95854.03;5042582;28;20053;-72
2022/12/28 00:59:45;;;;;;;10.07;7.20;;;;;;;6.79;69.91;95846.66;5042880;28;20052;-73
2022/12/28 01:02:11;;;;;;;8.20;6.22;;;;;;;6.82;69.63;95850.84;5042901;28;20064;-72
2022/12/28 01:04:36;;;;;;;11.15;7.68;;;;;;;6.82;69.82;95846.50;5041117;28;20021;-73
2022/12/28 01:07:02;;;;;;;10.57;7.63;;;;;;;6.84;69.80;95849.03;5038077;28;20037;-73
2022/12/28 01:09:27;;;;;;;11.43;8.20;;;;;;;6.86;69.89;95865.28;5027386;28;20040;-73
2022/12/28 01:11:53;;;;;;;9.63;7.22;;;;;;;6.79;69.91;95846.66;4994880;28;20113;-73
2022/12/28 01:14:18;;;;;;;12.60;8.35;;;;;;;6.81;69.80;95854.34;5011190;28;20036;-73
2022/12/28 01:16:44;;;;;;;10.98;8.38;;;;;;;6.86;69.72;95853.19;5027705;28;20048;-72
2022/12/28 01:19:09;;;;;;;10.73;8.10;;;;;;;6.82;69.62;95853.41;5028133;28;20034;-71
2022/12/28 01:21:35;;;;;;;12.18;9.23;;;;;;;6.76;69.76;95838.25;5011521;28;20033;-73
2022/12/28 01:24:01;;;;;;;10.05;7.68;;;;;;;6.75;69.85;95845.16;4993524;28;20030;-73
2022/12/28 01:26:27;;;;;;;10.55;8.27;;;;;;;6.80;69.92;95847.50;5011427;28;20033;-73
2022/12/28 01:28:53;;;;;;;11.90;8.07;;;;;;;6.81;69.35;95838.84;5027834;28;20034;-71
2022/12/28 01:31:18;;;;;;;9.48;7.97;;;;;;;6.85;69.34;95835.19;4995175;28;20033;-71
2022/12/28 01:33:44;;;;;;;12.73;8.05;;;;;;;6.81;69.45;95842.25;5025161;28;20116;-71
2022/12/28 01:36:13;;;;;;;11.10;8.13;;;;;;;6.78;69.79;95839.84;5027572;28;20037;-71
2022/12/28 01:38:38;;;;;;;11.15;8.27;;;;;;;6.83;69.33;95844.78;5028094;28;20095;-71
2022/12/28 01:41:08;;;;;;;10.95;7.90;;;;;;;6.89;69.45;95836.72;5025637;28;20038;-71
2022/12/28 01:43:54;;;;;;;10.60;7.97;;;;;;;6.79;69.67;95840.66;5027313;28;20041;-71
2022/12/28 01:46:34;;;;;;;10.32;8.60;;;;;;;6.82;69.20;95819.84;5019301;28;21000;-71
2022/12/28 01:49:11;;;;;;;9.95;7.88;;;;;;;6.87;69.12;95834.19;5025157;28;20037;-71
2022/12/28 01:52:01;;;;;;;10.15;7.95;;;;;;;6.90;68.84;95820.28;5022518;28;20040;-72
2022/12/28 01:54:28;;;;;;;9.18;7.18;;;;;;;6.86;68.72;95821.38;5025390;28;20151;-71
2022/12/28 01:56:54;;;;;;;10.23;7.22;;;;;;;6.92;68.82;95828.78;5012414;28;20057;-71
2022/12/28 01:59:21;;;;;;;10.00;7.90;;;;;;;6.82;69.02;95830.19;5030717;28;20037;-71
2022/12/28 02:01:46;;;;;;;12.95;8.43;;;;;;;6.52;69.15;95827.41;5013653;28;20124;-72
2022/12/28 02:04:12;;;;;;;9.95;7.30;;;;;;;6.70;68.95;95824.72;4999400;28;20036;-73
2022/12/28 02:06:37;;;;;;;10.77;7.03;;;;;;;6.74;68.79;95819.41;5021168;28;20037;-72
2022/12/28 02:09:04;;;;;;;8.82;6.82;;;;;;;6.66;68.84;95819.81;5014908;28;20037;-72
2022/12/28 02:11:29;;;;;;;10.25;8.10;;;;;;;6.66;68.57;95812.06;5019264;28;20036;-72
2022/12/28 02:13:55;;;;;;;10.20;7.80;;;;;;;6.69;68.28;95811.91;5014803;28;20021;-72
2022/12/28 02:16:20;;;;;;;10.18;7.72;;;;;;;6.72;68.41;95815.16;5014315;28;20029;-72
2022/12/28 02:18:46;;;;;;;9.85;7.35;;;;;;;6.76;68.31;95820.16;5030552;28;20032;-72
2022/12/28 02:21:24;;;;;;;11.07;7.40;;;;;;;6.72;68.17;95807.41;4995803;28;20026;-72
2022/12/28 02:24:16;;;;;;;9.63;7.03;;;;;;;6.62;68.15;95810.56;5010341;28;20120;-72
2022/12/28 02:27:12;;;;;;;9.63;7.05;;;;;;;6.66;68.07;95812.06;5012866;28;20045;-71
2022/12/28 02:29:43;;;;;;;9.52;6.97;;;;;;;6.76;68.15;95805.50;5015779;28;20572;-72
2022/12/28 02:32:21;;;;;;;11.57;7.47;;;;;;;6.47;68.30;95804.44;5029843;28;20030;-71
2022/12/28 02:34:52;;;;;;;9.48;6.95;;;;;;;6.48;67.93;95795.75;5032056;28;20112;-71
2022/12/28 02:37:23;;;;;;;9.38;7.03;;;;;;;6.39;68.09;95801.41;5030508;28;20041;-73
2022/12/28 02:39:52;;;;;;;;;;;;;;;6.51;67.22;95800.78;4998609;28;20060;-71
2022/12/28 02:42:18;;;;;;;8.77;6.32;;;;;;;6.45;67.82;95781.25;5030405;28;19928;-71
2022/12/28 02:50:12;;;;;;;9.70;6.78;;;;;;;6.52;67.44;95806.75;5030679;28;20048;-72
2022/12/28 02:53:04;;;;;;;10.15;6.43;;;;;;;6.60;67.30;95805.47;5030168;28;20522;-71
2022/12/28 02:56:06;;;;;;;8.80;6.28;;;;;;;6.58;67.18;95807.31;5023126;28;20034;-71
2022/12/28 02:58:51;;;;;;;;;;;;;;;6.39;66.51;95801.41;5022256;28;20050;-73
2022/12/28 03:01:45;;;;;;;11.30;7.63;;;;;;;6.25;66.74;95804.69;5030213;28;19913;-73
2022/12/28 03:04:25;;;;;;;9.88;6.85;;;;;;;6.33;66.74;95804.31;5020943;28;20128;-73
2022/12/28 03:10:14;;;;;;;11.18;6.60;;;;;;;6.14;66.95;95800.03;5031512;28;20048;-73
2022/12/28 03:13:00;;;;;;;8.77;7.15;;;;;;;6.11;67.09;95802.78;5021129;28;20471;-73
2022/12/28 03:15:31;;;;;;;10.70;7.80;;;;;;;6.13;66.90;95795.81;5029250;28;20034;-73
2022/12/28 03:31:54;;;;;;;13.40;9.38;;;;;;;5.99;66.72;95787.88;4999279;28;20044;-73
2022/12/28 03:34:20;;;;;;;14.40;9.25;;;;;;;5.91;66.88;95800.31;5002986;28;20025;-72
2022/12/28 03:37:09;;;;;;;11.77;8.60;;;;;;;5.97;66.67;95805.22;5013248;28;20044;-73
2022/12/28 03:39:41;;;;;;;11.23;8.70;;;;;;;6.05;66.48;95808.25;5029231;28;20164;-73
2022/12/28 03:45:18;;;;;;;13.10;8.40;;;;;;;6.10;67.00;95814.03;5011378;28;20103;-73
2022/12/28 03:47:43;;;;;;;12.35;8.40;;;;;;;6.01;67.12;95804.97;5013731;28;20128;-73
2022/12/28 03:50:09;;;;;;;13.13;8.40;;;;;;;6.02;67.09;95800.66;5003120;28;20034;-73
2022/12/28 03:52:34;;;;;;;11.95;8.43;;;;;;;6.03;66.97;95789.44;4993631;28;20520;-73
2022/12/28 03:55:00;;;;;;;12.45;8.57;;;;;;;6.09;66.83;95796.84;5018955;28;20527;-73
2022/12/28 03:57:25;;;;;;;12.63;8.45;;;;;;;6.12;66.44;95793.28;5011722;28;20054;-73
2022/12/28 03:59:51;;;;;;;11.45;7.85;;;;;;;6.03;66.54;95784.25;5013014;28;20049;-73
2022/12/28 04:02:16;;;;;;;11.02;7.40;;;;;;;6.08;66.80;95791.78;5029546;28;20099;-73
2022/12/28 04:04:41;;;;;;;11.55;8.13;;;;;;;5.87;66.65;95780.72;5029625;28;20025;-73
2022/12/28 04:07:07;;;;;;;11.32;7.65;;;;;;;5.95;66.73;95792.38;5029625;28;20037;-73
2022/12/28 04:09:33;;;;;;;10.07;7.63;;;;;;;5.94;66.84;95784.72;5029285;28;20034;-73
2022/12/28 04:11:58;;;;;;;12.50;8.48;;;;;;;5.91;66.59;95790.00;5020506;28;20065;-73
2022/12/28 04:14:23;;;;;;;11.05;8.35;;;;;;;5.88;66.38;95784.97;5020544;28;20504;-73
2022/12/28 04:16:49;;;;;;;12.07;7.88;;;;;;;5.97;66.62;95795.72;5028871;28;20038;-73
2022/12/28 04:19:14;;;;;;;11.38;7.93;;;;;;;5.94;66.33;95795.88;4999304;28;20030;-73
2022/12/28 04:21:40;;;;;;;13.65;7.88;;;;;;;5.92;66.41;95791.66;5029022;28;20038;-73
2022/12/28 04:24:05;;;;;;;9.88;7.22;;;;;;;5.99;66.83;95800.78;5030221;28;20483;-73
2022/12/28 04:26:31;;;;;;;10.35;7.30;;;;;;;5.93;67.04;95795.91;5013313;28;20495;-73
2022/12/28 04:29:00;;;;;;;10.30;7.28;;;;;;;5.91;67.09;95790.00;5009955;28;20037;-73
2022/12/28 04:31:27;;;;;;;12.50;8.07;;;;;;;5.89;66.99;95800.38;5020875;28;20499;-73
2022/12/28 04:33:52;;;;;;;11.13;7.80;;;;;;;5.86;66.95;95786.81;4996156;28;20057;-73
2022/12/28 04:36:17;;;;;;;10.32;7.03;;;;;;;5.86;66.97;95787.66;5028861;28;20017;-73
2022/12/28 04:38:43;;;;;;;9.35;7.10;;;;;;;5.81;67.93;95803.31;5029081;28;20034;-73
2022/12/28 04:41:09;;;;;;;10.75;7.35;;;;;;;5.77;67.96;95819.88;5025125;28;20022;-72
2022/12/28 04:43:34;;;;;;;9.50;6.85;;;;;;;5.73;67.88;95823.50;5029728;28;20029;-72
2022/12/28 04:46:05;;;;;;;11.90;8.07;;;;;;;5.78;67.67;95834.41;5032970;28;20530;-73
2022/12/28 04:48:30;;;;;;;15.02;9.25;;;;;;;5.71;67.93;95840.78;5016611;28;20045;-73
2022/12/28 04:50:56;;;;;;;13.60;7.88;;;;;;;5.70;68.33;95836.53;5015974;28;20029;-74
2022/12/28 04:53:21;;;;;;;10.32;7.03;;;;;;;5.61;68.04;95818.94;5032790;28;20037;-73
2022/12/28 04:55:47;;;;;;;10.50;6.97;;;;;;;5.67;68.05;95823.78;5015553;28;20319;-72
2022/12/28 04:58:12;;;;;;;12.10;6.72;;;;;;;5.66;67.73;95827.28;4994282;28;20065;-72
2022/12/28 05:00:38;;;;;;;9.45;6.47;;;;;;;5.61;67.79;95834.41;5028607;28;20026;-72
2022/12/28 05:03:03;;;;;;;9.68;6.35;;;;;;;5.62;68.17;95843.78;5008171;28;20037;-72
2022/12/28 05:05:29;;;;;;;9.65;6.55;;;;;;;5.54;67.87;95828.69;5015493;28;20084;-72
2022/12/28 05:07:54;;;;;;;9.13;6.88;;;;;;;5.67;67.56;95833.28;5015883;28;20065;-72
2022/12/28 05:10:20;;;;;;;8.68;6.50;;;;;;;5.56;66.69;95826.03;5005068;28;20030;-72
2022/12/28 05:12:45;;;;;;;8.55;6.00;;;;;;;5.59;67.05;95837.03;5005907;28;20044;-72
2022/12/28 05:15:11;;;;;;;7.65;5.80;;;;;;;5.68;66.61;95829.78;5018553;28;20025;-72
2022/12/28 05:17:36;;;;;;;9.25;6.03;;;;;;;5.64;67.08;95836.81;5019435;28;20045;-72
2022/12/28 05:20:03;;;;;;;8.32;6.28;;;;;;;5.52;66.23;95830.50;5032326;28;20030;-72
2022/12/28 05:22:28;;;;;;;8.15;5.50;;;;;;;5.65;66.24;95833.31;5031099;28;20040;-72
2022/12/28 05:24:53;;;;;;;7.50;5.63;;;;;;;5.68;66.47;95833.19;5028274;28;20025;-72
2022/12/28 05:27:19;;;;;;;7.85;5.95;;;;;;;5.69;66.26;95821.97;5012231;28;20045;-72
2022/12/28 05:29:44;;;;;;;8.02;6.05;;;;;;;5.74;66.49;95830.34;5012442;28;20037;-72
2022/12/28 05:32:10;;;;;;;9.20;6.60;;;;;;;5.80;67.10;95816.31;5012213;28;20125;-72
2022/12/28 05:34:35;;;;;;;10.38;7.70;;;;;;;5.82;67.70;95829.94;5030573;28;20041;-72
2022/12/28 05:37:01;;;;;;;17.70;13.05;;;;;;;5.69;68.39;95823.72;5031689;28;20522;-72
2022/12/28 05:39:26;;;;;;;12.02;8.98;;;;;;;5.74;68.00;95837.22;5032865;28;20037;-72
2022/12/28 05:41:52;;;;;;;10.32;7.43;;;;;;;5.79;67.65;95833.53;5031707;28;20044;-73
2022/12/28 05:44:17;;;;;;;10.52;7.93;;;;;;;5.73;67.87;95832.97;5031559;28;20037;-73
2022/12/28 05:46:42;;;;;;;11.63;8.63;;;;;;;5.76;68.18;95849.13;5029012;28;20037;-73
2022/12/28 05:49:08;;;;;;;14.20;9.85;;;;;;;5.68;68.15;95852.97;5015058;28;20029;-73
2022/12/28 05:51:33;;;;;;;25.50;15.02;;;;;;;5.66;68.33;95852.22;5031432;28;20083;-73
2022/12/28 05:53:59;;;;;;;31.38;19.58;;;;;;;5.19;69.11;95824.34;5011142;28;20026;-73
2022/12/28 05:56:26;;;;;;;28.15;18.13;;;;;;;5.14;69.95;95860.59;5010728;28;20076;-73
2022/12/28 05:59:02;;;;;;;39.10;23.02;;;;;;;5.14;70.16;95858.03;4979184;28;20108;-73
2022/12/28 06:01:29;;;;;;;39.30;21.00;;;;;;;5.33;69.75;95873.50;5011277;28;20140;-73
2022/12/28 06:04:00;;;;;;;27.55;18.77;;;;;;;5.29;69.62;95865.06;5005820;28;20034;-73
2022/12/28 06:06:25;;;;;;;27.10;16.43;;;;;;;5.33;69.70;95871.75;5010071;28;20037;-73
2022/12/28 06:08:51;;;;;;;32.40;19.30;;;;;;;5.36;69.38;95869.03;5012326;28;20427;-72
2022/12/28 06:11:21;;;;;;;34.90;20.15;;;;;;;5.52;68.43;95870.91;5011922;28;20030;-72
2022/12/28 06:13:46;;;;;;;34.90;18.30;;;;;;;5.40;68.87;95868.88;5017425;28;20045;-72
2022/12/28 06:16:33;;;;;;;33.80;19.73;;;;;;;5.52;68.63;95865.75;5002102;28;20037;-72
2022/12/28 06:18:59;;;;;;;38.35;20.92;;;;;;;5.41;69.19;95870.56;5022499;28;20026;-72
2022/12/28 06:21:28;;;;;;;37.42;20.45;;;;;;;5.50;68.59;95883.03;5007623;28;20033;-72
2022/12/28 06:23:56;;;;;;;32.58;17.40;;;;;;;5.56;68.05;95885.31;5008022;28;20055;-73
2022/12/28 06:26:22;;;;;;;37.72;18.40;;;;;;;5.45;68.77;95869.50;5024530;28;20025;-73
2022/12/28 06:28:47;;;;;;;32.30;17.33;;;;;;;5.55;68.85;95876.75;5008860;28;20065;-74
2022/12/28 06:31:17;;;;;;;28.63;15.35;;;;;;;5.55;69.06;95881.91;5004751;28;20013;-72
2022/12/28 06:33:43;;;;;;;25.45;14.77;;;;;;;5.50;69.57;95877.88;5021977;28;20037;-73
2022/12/28 06:36:12;;;;;;;22.40;13.43;;;;;;;5.40;69.63;95872.28;5004182;28;20108;-73
2022/12/28 06:38:38;;;;;;;30.85;18.02;;;;;;;5.41;70.02;95868.00;4994008;28;20034;-72
2022/12/28 06:41:04;;;;;;;27.17;15.85;;;;;;;5.43;69.99;95858.44;5018239;28;20079;-72
2022/12/28 06:43:34;;;;;;;23.08;12.70;;;;;;;5.49;69.33;95871.91;5017056;28;20048;-72
2022/12/28 06:45:59;;;;;;;21.50;12.02;;;;;;;5.54;68.69;95877.69;5018369;28;20472;-74
2022/12/28 06:48:25;;;;;;;17.25;10.63;;;;;;;5.50;68.97;95885.63;5002949;28;20044;-72
2022/12/28 06:50:57;;;;;;;14.60;8.93;;;;;;;5.50;69.58;95883.88;5019865;28;20110;-73
2022/12/28 06:53:28;;;;;;;11.65;8.40;;;;;;;5.56;68.56;95877.59;5020444;28;20033;-73
2022/12/28 06:55:58;;;;;;;13.07;9.18;;;;;;;5.62;68.36;95885.03;4990109;28;20219;-73
2022/12/28 06:58:24;;;;;;;15.75;10.50;;;;;;;5.57;68.75;95894.72;5014503;28;20080;-73
2022/12/28 07:00:50;;;;;;;23.00;14.93;;;;;;;5.57;69.60;95907.59;5007271;28;20075;-71
2022/12/28 07:03:15;;;;;;;31.52;22.10;;;;;;;5.47;69.30;95888.34;5018888;28;20033;-72
2022/12/28 07:05:41;;;;;;;34.80;24.63;;;;;;;5.56;68.47;95893.88;5006492;28;20083;-72
2022/12/28 07:08:06;;;;;;;24.33;16.75;;;;;;;5.64;67.14;95893.53;5008044;28;20045;-71
2022/12/28 07:10:32;;;;;;;25.77;18.58;;;;;;;5.73;67.50;95890.53;5023395;28;20026;-72
2022/12/28 07:12:58;;;;;;;29.20;21.00;;;;;;;5.75;68.54;95895.63;5026319;28;20045;-72
2022/12/28 07:15:23;;;;;;;29.77;21.30;;;;;;;5.75;68.82;95890.47;5023878;28;20041;-72
2022/12/28 07:17:49;;;;;;;36.13;24.83;;;;;;;5.77;69.04;95886.09;5024379;28;20033;-70
2022/12/28 07:20:14;;;;;;;35.63;24.67;;;;;;;5.91;68.75;95880.28;5022941;28;20048;-72
2022/12/28 07:22:40;;;;;;;35.28;23.50;;;;;;;5.95;68.48;95887.81;5026027;28;20073;-72
2022/12/28 07:25:06;;;;;;;28.40;20.42;;;;;;;5.92;68.80;95872.44;5026210;28;20079;-71
2022/12/28 07:27:31;;;;;;;28.15;19.60;;;;;;;6.00;68.62;95878.13;5019638;28;20415;-72
2022/12/28 07:29:57;;;;;;;26.42;17.95;;;;;;;6.03;68.72;95883.13;5008521;28;20045;-72
2022/12/28 07:32:22;;;;;;;23.42;16.98;;;;;;;6.07;68.84;95882.97;5024848;28;20476;-72
2022/12/28 07:34:47;;;;;;;22.85;16.10;;;;;;;6.15;68.89;95883.44;5021078;28;20427;-72
2022/12/28 07:37:13;;;;;;;20.02;15.93;;;;;;;6.17;69.06;95887.63;5023228;28;20513;-72
2022/12/28 07:39:38;;;;;;;17.02;12.95;;;;;;;6.18;68.93;95880.72;5025660;28;20033;-73
2022/12/28 07:42:07;;;;;;;22.20;16.20;;;;;;;6.13;68.81;95873.22;5005319;28;20041;-72
2022/12/28 07:44:32;;;;;;;21.55;14.90;;;;;;;6.33;68.66;95887.72;5024178;28;20400;-72
2022/12/28 07:46:57;;;;;;;24.35;18.40;;;;;;;6.34;68.46;95886.78;5025162;28;20044;-72
2022/12/28 07:49:23;;;;;;;28.85;20.70;;;;;;;6.39;68.15;95895.16;5025863;28;20515;-73
2022/12/28 07:51:48;;;;;;;27.42;21.55;;;;;;;6.43;68.38;95906.16;5025114;28;20638;-72
2022/12/28 07:54:14;;;;;;;34.45;25.10;;;;;;;6.44;68.15;95897.50;5026811;28;20044;-73
2022/12/28 07:56:39;;;;;;;30.17;21.55;;;;;;;6.46;67.36;95881.03;5026364;28;20058;-72
2022/12/28 07:59:05;;;;;;;28.67;20.85;;;;;;;6.55;66.75;95884.91;5025748;28;20025;-73
2022/12/28 08:01:32;;;;;;;29.88;21.00;;;;;;;6.69;66.99;95903.13;5006222;28;20056;-71
2022/12/28 08:04:00;;;;;;;17.40;12.55;;;;;;;6.57;67.54;95903.72;5006735;28;20033;-71
2022/12/28 08:06:26;;;;;;;17.92;12.70;;;;;;;6.77;67.25;95899.31;4992597;28;20412;-71
2022/12/28 08:08:53;;;;;;;15.43;11.05;;;;;;;6.79;66.88;95897.50;5003151;28;20033;-73
2022/12/28 08:11:23;;;;;;;15.20;10.68;;;;;;;6.81;65.96;95896.50;4999290;28;20026;-74
2022/12/28 08:13:49;;;;;;;11.77;8.77;;;;;;;6.87;64.42;95888.44;5017719;28;20075;-73
2022/12/28 08:16:17;;;;;;;11.65;8.63;;;;;;;7.02;63.61;95901.47;5008308;28;20035;-76
2022/12/28 08:18:42;;;;;;;12.05;8.93;;;;;;;7.06;63.61;95901.25;5003893;28;20026;-75
2022/12/28 08:21:17;;;;;;;19.77;11.57;;;;;;;7.04;63.48;95891.91;5010966;28;20030;-75
2022/12/28 08:23:43;;;;;;;16.80;10.48;;;;;;;6.87;62.75;95872.09;5029202;28;20037;-77
2022/12/28 08:26:13;;;;;;;14.27;9.88;;;;;;;7.06;62.28;95895.25;5023012;28;20014;-78
2022/12/28 08:28:39;;;;;;;14.27;9.47;;;;;;;7.04;62.31;95892.72;5010768;28;20033;-74
2022/12/28 08:31:18;;;;;;;12.77;8.95;;;;;;;7.10;61.96;95896.75;5037969;28;20039;-75
2022/12/28 08:33:43;;;;;;;10.43;8.02;;;;;;;7.14;61.80;95896.50;5038906;28;20021;-75
2022/12/28 08:36:09;;;;;;;13.80;8.43;;;;;;;7.24;61.48;95912.38;5012171;28;20510;-75
2022/12/28 08:38:35;;;;;;;12.57;8.52;;;;;;;7.30;62.05;95904.31;5005543;28;20042;-75
2022/12/28 08:41:02;;;;;;;12.50;8.18;;;;;;;7.27;61.40;95895.84;5017193;28;20092;-74
2022/12/28 08:43:28;;;;;;;12.02;9.05;;;;;;;7.29;61.12;95886.28;5012692;28;20041;-75
2022/12/28 08:46:01;;;;;;;11.05;7.85;;;;;;;7.28;61.16;95895.78;5027827;28;20163;-75
2022/12/28 08:48:27;;;;;;;13.13;9.05;;;;;;;7.28;61.11;95898.38;5029913;28;20430;-75
2022/12/28 08:50:52;;;;;;;10.40;8.07;;;;;;;7.31;61.07;95902.56;5011126;28;20060;-75
2022/12/28 08:53:18;;;;;;;17.45;10.25;;;;;;;7.36;60.36;95893.66;5011108;28;20556;-75
2022/12/28 08:55:43;;;;;;;26.10;16.42;;;;;;;7.36;60.90;95895.41;4994453;28;20045;-75
2022/12/28 08:58:09;;;;;;;72.68;45.03;;;;;;;7.30;60.80;95880.19;5011190;28;20053;-75
2022/12/28 09:00:34;;;;;;;51.25;35.83;;;;;;;7.33;60.45;95892.97;5021691;28;20538;-75
2022/12/28 09:02:59;;;;;;;25.38;17.88;;;;;;;7.41;60.25;95892.56;5030555;28;20033;-75
2022/12/28 09:05:25;;;;;;;27.38;18.75;;;;;;;7.45;60.91;95896.66;5030193;28;20028;-73
2022/12/28 09:07:51;;;;;;;31.85;21.20;;;;;;;7.45;60.23;95887.16;5030545;28;20120;-74
2022/12/28 09:10:16;;;;;;;36.70;25.35;;;;;;;7.46;60.67;95882.81;5030381;28;20021;-75
2022/12/28 09:12:41;;;;;;;27.85;20.38;;;;;;;7.43;59.93;95859.69;5030409;28;20037;-75
2022/12/28 09:15:08;;;;;;;18.40;13.65;;;;;;;7.48;60.19;95866.28;5031479;28;20539;-75
2022/12/28 09:17:33;;;;;;;17.45;12.57;;;;;;;7.49;60.32;95870.53;5015094;28;20042;-75
2022/12/28 09:19:58;;;;;;;14.20;11.23;;;;;;;7.46;59.92;95869.88;5032386;28;20088;-75
2022/12/28 09:22:24;;;;;;;16.65;12.60;;;;;;;7.51;59.85;95862.72;5032183;28;20030;-75
2022/12/28 09:24:49;;;;;;;15.23;11.52;;;;;;;7.54;59.50;95860.78;5033544;28;20026;-74
2022/12/28 09:27:15;;;;;;;12.07;9.43;;;;;;;7.54;60.35;95854.78;5012215;28;20204;-75
2022/12/28 09:29:40;;;;;;;19.30;12.93;;;;;;;7.56;59.88;95864.13;5011989;28;20029;-75
2022/12/28 09:32:06;;;;;;;20.80;12.52;;;;;;;7.58;60.00;95859.72;5012241;28;20042;-75
2022/12/28 09:34:31;;;;;;;16.88;11.20;;;;;;;7.38;60.16;95849.59;5013493;28;20065;-75
2022/12/28 09:36:56;;;;;;;21.15;13.43;;;;;;;7.56;60.04;95856.38;5022235;28;20038;-75
2022/12/28 09:39:23;;;;;;;16.80;10.90;;;;;;;7.60;59.17;95844.97;5031362;28;20049;-74
2022/12/28 09:42:02;;;;;;;10.98;8.23;;;;;;;7.66;57.65;95833.44;5031868;28;20080;-75
2022/12/28 09:44:58;;;;;;;15.40;10.23;;;;;;;7.68;58.68;95841.09;5032053;28;20029;-75
2022/12/28 09:47:37;;;;;;;17.10;11.27;;;;;;;7.68;57.77;95849.69;5030669;28;20443;-74
2022/12/28 09:50:14;;;;;;;18.60;11.77;;;;;;;7.65;60.03;95849.03;5031885;28;20025;-75
2022/12/28 09:52:55;;;;;;;16.38;11.48;;;;;;;7.77;58.53;95840.59;5033306;28;20036;-75
2022/12/28 09:55:20;;;;;;;19.98;13.00;;;;;;;7.74;58.81;95833.81;5032908;28;20040;-74
2022/12/28 09:57:50;;;;;;;13.85;10.35;;;;;;;7.73;59.21;95824.41;5014818;28;20046;-75
2022/12/28 10:00:21;;;;;;;16.23;10.20;;;;;;;7.69;59.08;95833.28;5015216;28;20018;-75
2022/12/28 10:02:53;;;;;;;13.10;9.75;;;;;;;7.61;59.17;95825.94;5015347;28;20041;-75
2022/12/28 10:05:20;;;;;;;16.40;10.70;;;;;;;7.70;58.76;95824.59;5015743;28;20036;-74
2022/12/28 10:07:45;;;;;;;16.00;10.13;;;;;;;7.58;58.42;95813.16;5015012;28;20065;-75
2022/12/28 10:10:17;;;;;;;16.55;10.85;;;;;;;7.47;59.09;95817.28;5014956;28;20423;-75
2022/12/28 10:12:43;;;;;;;15.70;11.65;;;;;;;7.67;58.36;95813.59;5015114;28;20037;-75
2022/12/28 10:15:12;;;;;;;57.80;51.75;;;;;;;7.68;58.62;95807.47;5031333;28;20056;-75
2022/12/28 10:17:37;;;;;;;19.25;14.38;;;;;;;7.89;57.71;95814.03;5031233;28;20038;-75
2022/12/28 10:20:05;;;;;;;17.33;11.63;;;;;;;7.92;57.18;95803.53;5031264;28;20036;-75
2022/12/28 10:22:37;;;;;;;19.38;13.23;;;;;;;8.02;58.06;95804.69;5031059;28;20079;-75
2022/12/28 10:25:11;;;;;;;22.27;16.05;;;;;;;7.95;59.09;95808.53;5015281;28;20072;-75
2022/12/28 10:27:37;;;;;;;21.52;16.33;;;;;;;8.05;58.94;95804.50;5014929;28;20044;-75
2022/12/28 10:30:13;;;;;;;27.05;15.82;;;;;;;7.89;60.27;95798.53;5014428;28;20030;-75
2022/12/28 10:32:58;;;;;;;24.95;16.35;;;;;;;7.99;60.64;95804.81;5015504;28;20033;-75
2022/12/28 10:35:32;;;;;;;23.13;14.90;;;;;;;8.17;59.41;95804.72;5032161;28;20551;-75
2022/12/28 10:38:27;;;;;;;21.20;15.23;;;;;;;8.21;59.75;95808.78;5032458;28;20397;-75
2022/12/28 10:41:04;;;;;;;19.80;14.05;;;;;;;8.29;58.73;95806.59;5015218;28;20029;-75
2022/12/28 10:43:32;;;;;;;20.75;14.45;;;;;;;8.01;58.78;95807.34;5030916;28;20408;-74
2022/12/28 10:45:57;;;;;;;19.98;13.65;;;;;;;8.00;59.08;95808.28;5030697;28;20029;-75
2022/12/28 10:48:31;;;;;;;19.63;14.45;;;;;;;8.15;58.34;95794.44;5022217;28;20039;-75
2022/12/28 10:51:09;;;;;;;18.27;12.88;;;;;;;8.07;57.68;95807.81;5007894;28;20022;-75
2022/12/28 10:53:37;;;;;;;22.38;14.80;;;;;;;8.15;58.65;95806.56;5021597;28;20049;-79
2022/12/28 10:56:12;;;;;;;21.42;14.20;;;;;;;8.23;59.01;95801.78;5016150;28;20080;-74
2022/12/28 10:58:38;;;;;;;18.70;13.85;;;;;;;8.17;58.43;95786.59;5017128;28;20127;-74
2022/12/28 11:01:13;;;;;;;19.80;13.32;;;;;;;8.34;58.05;95783.03;5009376;28;20025;-75
2022/12/28 11:03:40;;;;;;;21.27;13.90;;;;;;;8.27;57.90;95762.69;5031718;28;20095;-72
2022/12/28 11:06:30;;;;;;;17.65;12.95;;;;;;;8.15;58.80;95788.44;5020266;28;20022;-74
2022/12/28 11:09:16;;;;;;;20.20;12.90;;;;;;;8.06;59.36;95774.28;4994071;28;20092;-73
2022/12/28 11:11:42;;;;;;;20.00;14.35;;;;;;;8.13;59.56;95767.81;5003786;28;20038;-74
2022/12/28 11:14:24;;;;;;;22.98;14.27;;;;;;;8.26;58.74;95791.22;5027219;28;20056;-72
2022/12/28 11:16:50;;;;;;;20.42;14.07;;;;;;;8.26;58.89;95786.88;5014803;28;20139;-70
2022/12/28 11:19:15;;;;;;;30.58;20.98;;;;;;;8.26;58.94;95796.41;5009935;28;20030;-72
2022/12/28 11:21:41;;;;;;;22.35;14.07;;;;;;;8.12;59.17;95793.78;4978625;28;20042;-71
2022/12/28 11:24:13;;;;;;;25.52;19.42;;;;;;;8.18;58.91;95801.19;4992015;28;20569;-72
2022/12/28 11:26:41;;;;;;;20.50;14.07;;;;;;;8.13;59.21;95801.44;5026043;28;20029;-76
2022/12/28 11:29:08;;;;;;;21.80;14.88;;;;;;;8.24;58.88;95806.00;4994293;28;20108;-74
2022/12/28 11:31:34;;;;;;;22.40;14.75;;;;;;;8.18;59.23;95803.78;4994543;28;20040;-79
2022/12/28 11:34:04;;;;;;;21.88;14.50;;;;;;;8.23;58.97;95804.34;5011329;28;20022;-72
2022/12/28 11:36:30;;;;;;;19.92;13.02;;;;;;;8.23;58.90;95801.78;4995119;28;20451;-72
2022/12/28 11:38:55;;;;;;;19.45;13.82;;;;;;;8.16;59.03;95800.44;4993727;28;20080;-73
2022/12/28 11:41:24;;;;;;;20.98;14.95;;;;;;;8.23;59.13;95809.53;5024358;28;20033;-73
2022/12/28 11:43:57;;;;;;;18.90;14.68;;;;;;;8.00;58.99;95813.44;5028846;28;20124;-72
2022/12/28 11:46:23;;;;;;;19.38;14.20;;;;;;;8.05;59.03;95809.69;4999742;28;20022;-71
2022/12/28 11:49:23;;;;;;;23.00;14.18;;;;;;;8.07;59.11;95817.34;5009831;28;20463;-73
2022/12/28 11:52:15;;;;;;;19.85;14.20;;;;;;;8.07;58.97;95804.41;5040989;28;20539;-73
2022/12/28 11:55:19;;;;;;;20.75;14.40;;;;;;;8.04;58.93;95813.16;5012467;28;20034;-73
2022/12/28 11:57:44;;;;;;;31.83;13.55;;;;;;;8.03;58.95;95808.91;5026207;28;20057;-74
2022/12/28 12:00:16;;;;;;;17.77;12.80;;;;;;;8.11;58.56;95805.03;5014983;28;20018;-74
2022/12/28 12:02:46;;;;;;;17.92;13.45;;;;;;;7.92;58.79;95782.00;5011098;28;20080;-77
2022/12/28 12:05:36;;;;;;;20.25;14.05;;;;;;;7.88;58.67;95794.25;5003756;28;20029;-78